Graham, Alabama
Current Conditions -  °F | °C
As of 6:15 AM on Monday 26 Jan 2015 (Local Time) from KCTJ Reporting Station
Overcast Overcast  
Wind Chill: 39°   Ceiling: 1300
Heat Index: 43°   Visibility: 10mi
Dew Point: 39°   Wind: 7mph
Humidity: 87%   Direction: 300°WNW
Pressure: 29.83"   Gusts: NA
Location:  33.46°N, 85.32°W
Report Text: KCTJ 261215Z AUTO 30006KT 10SM OVC013 06/04 A2983 RMK AO2
Loading
Personal Weather Stations






























Interactive Weather Map New forecast layout! Learn more

10-Day Weather Forecast

Advertisements
Track Severe Weather on mobile